sensor_id;sensor_type;location;lat;lon;timestamp;temperature;humidity
56861;DHT22;42744;51.094;3.490;2023-04-08T00:01:44;8.00;99.90
56861;DHT22;42744;51.094;3.490;2023-04-08T00:04:10;8.00;99.90
56861;DHT22;42744;51.094;3.490;2023-04-08T00:06:39;8.00;99.90
56861;DHT22;42744;51.094;3.490;2023-04-08T00:09:05;7.90;99.90
56861;DHT22;42744;51.094;3.490;2023-04-08T00:11:31;8.00;99.90
56861;DHT22;42744;51.094;3.490;2023-04-08T00:13:57;8.00;99.90
56861;DHT22;42744;51.094;3.490;2023-04-08T00:16:23;7.90;99.90
56861;DHT22;42744;51.094;3.490;2023-04-08T00:18:49;8.00;99.90
56861;DHT22;42744;51.094;3.490;2023-04-08T00:21:15;7.90;99.90
56861;DHT22;42744;51.094;3.490;2023-04-08T00:23:42;7.90;99.90
56861;DHT22;42744;51.094;3.490;2023-04-08T00:26:09;7.90;99.90
56861;DHT22;42744;51.094;3.490;2023-04-08T00:28:35;8.00;99.90
56861;DHT22;42744;51.094;3.490;2023-04-08T00:31:01;8.00;99.90
56861;DHT22;42744;51.094;3.490;2023-04-08T00:33:29;7.90;99.90
56861;DHT22;42744;51.094;3.490;2023-04-08T00:35:55;8.00;99.90
56861;DHT22;42744;51.094;3.490;2023-04-08T00:38:21;7.90;99.90
56861;DHT22;42744;51.094;3.490;2023-04-08T00:40:47;7.90;99.90
56861;DHT22;42744;51.094;3.490;2023-04-08T00:43:14;7.90;99.90
56861;DHT22;42744;51.094;3.490;2023-04-08T00:45:41;8.00;99.90
56861;DHT22;42744;51.094;3.490;2023-04-08T00:48:07;8.00;99.90
56861;DHT22;42744;51.094;3.490;2023-04-08T00:50:33;7.90;99.90
56861;DHT22;42744;51.094;3.490;2023-04-08T00:53:00;7.90;99.90
56861;DHT22;42744;51.094;3.490;2023-04-08T00:55:26;7.90;99.90
56861;DHT22;42744;51.094;3.490;2023-04-08T00:57:52;8.00;99.90
56861;DHT22;42744;51.094;3.490;2023-04-08T01:00:21;7.90;99.90
56861;DHT22;42744;51.094;3.490;2023-04-08T01:03:17;7.90;99.90
56861;DHT22;42744;51.094;3.490;2023-04-08T01:05:59;7.90;99.90
56861;DHT22;42744;51.094;3.490;2023-04-08T01:08:29;8.00;99.90
56861;DHT22;42744;51.094;3.490;2023-04-08T01:11:00;8.00;99.90
56861;DHT22;42744;51.094;3.490;2023-04-08T01:13:30;8.00;99.90
56861;DHT22;42744;51.094;3.490;2023-04-08T01:16:00;7.90;99.90
56861;DHT22;42744;51.094;3.490;2023-04-08T01:18:26;7.90;99.90
56861;DHT22;42744;51.094;3.490;2023-04-08T01:20:53;7.90;99.90
56861;DHT22;42744;51.094;3.490;2023-04-08T01:25:56;7.90;99.90
56861;DHT22;42744;51.094;3.490;2023-04-08T01:28:26;7.80;99.90
56861;DHT22;42744;51.094;3.490;2023-04-08T01:30:55;7.90;99.90
56861;DHT22;42744;51.094;3.490;2023-04-08T01:33:23;7.90;99.90
56861;DHT22;42744;51.094;3.490;2023-04-08T01:35:54;7.90;99.90
56861;DHT22;42744;51.094;3.490;2023-04-08T01:38:23;7.90;99.90
56861;DHT22;42744;51.094;3.490;2023-04-08T01:40:51;7.90;99.90
56861;DHT22;42744;51.094;3.490;2023-04-08T01:43:18;7.90;99.90
56861;DHT22;42744;51.094;3.490;2023-04-08T01:45:46;7.90;99.90
56861;DHT22;42744;51.094;3.490;2023-04-08T01:48:13;7.90;99.90
56861;DHT22;42744;51.094;3.490;2023-04-08T01:50:44;7.90;99.90
56861;DHT22;42744;51.094;3.490;2023-04-08T01:53:12;7.90;99.90
56861;DHT22;42744;51.094;3.490;2023-04-08T01:55:39;7.90;99.90
56861;DHT22;42744;51.094;3.490;2023-04-08T01:58:08;7.90;99.90
56861;DHT22;42744;51.094;3.490;2023-04-08T02:00:38;7.90;99.90
56861;DHT22;42744;51.094;3.490;2023-04-08T02:03:06;7.90;99.90
56861;DHT22;42744;51.094;3.490;2023-04-08T02:05:33;7.80;99.90
56861;DHT22;42744;51.094;3.490;2023-04-08T02:07:59;7.90;99.90
56861;DHT22;42744;51.094;3.490;2023-04-08T02:10:28;7.80;99.90
56861;DHT22;42744;51.094;3.490;2023-04-08T02:12:55;7.90;99.90
56861;DHT22;42744;51.094;3.490;2023-04-08T02:15:21;7.90;99.90
56861;DHT22;42744;51.094;3.490;2023-04-08T02:17:54;7.90;99.90
56861;DHT22;42744;51.094;3.490;2023-04-08T02:20:30;7.90;99.90
56861;DHT22;42744;51.094;3.490;2023-04-08T02:23:19;7.90;99.90
56861;DHT22;42744;51.094;3.490;2023-04-08T02:25:46;7.90;99.90
56861;DHT22;42744;51.094;3.490;2023-04-08T02:28:14;7.90;99.90
56861;DHT22;42744;51.094;3.490;2023-04-08T02:30:47;7.90;99.90
56861;DHT22;42744;51.094;3.490;2023-04-08T02:33:14;7.90;99.90
56861;DHT22;42744;51.094;3.490;2023-04-08T02:35:43;7.90;99.90
56861;DHT22;42744;51.094;3.490;2023-04-08T02:38:09;7.90;99.90
56861;DHT22;42744;51.094;3.490;2023-04-08T02:40:36;7.90;99.90
56861;DHT22;42744;51.094;3.490;2023-04-08T02:43:02;7.90;99.90
56861;DHT22;42744;51.094;3.490;2023-04-08T02:45:42;7.80;99.90
56861;DHT22;42744;51.094;3.490;2023-04-08T02:48:08;7.80;99.90
56861;DHT22;42744;51.094;3.490;2023-04-08T02:50:34;7.80;99.90
56861;DHT22;42744;51.094;3.490;2023-04-08T02:53:00;7.80;99.90
56861;DHT22;42744;51.094;3.490;2023-04-08T02:55:27;7.80;99.90
56861;DHT22;42744;51.094;3.490;2023-04-08T02:57:53;7.80;99.90
56861;DHT22;42744;51.094;3.490;2023-04-08T03:00:19;7.80;99.90
56861;DHT22;42744;51.094;3.490;2023-04-08T03:02:45;7.80;99.90
56861;DHT22;42744;51.094;3.490;2023-04-08T03:05:11;7.80;99.90
56861;DHT22;42744;51.094;3.490;2023-04-08T03:07:37;7.80;99.90
56861;DHT22;42744;51.094;3.490;2023-04-08T03:10:05;7.80;99.90
56861;DHT22;42744;51.094;3.490;2023-04-08T03:12:31;7.80;99.90
56861;DHT22;42744;51.094;3.490;2023-04-08T03:14:57;7.80;99.90
56861;DHT22;42744;51.094;3.490;2023-04-08T03:17:23;7.80;99.90
56861;DHT22;42744;51.094;3.490;2023-04-08T03:19:50;7.80;99.90
56861;DHT22;42744;51.094;3.490;2023-04-08T03:22:15;7.80;99.90
56861;DHT22;42744;51.094;3.490;2023-04-08T03:24:42;7.80;99.90
56861;DHT22;42744;51.094;3.490;2023-04-08T03:27:08;7.80;99.90
56861;DHT22;42744;51.094;3.490;2023-04-08T03:29:34;7.80;99.90
56861;DHT22;42744;51.094;3.490;2023-04-08T03:32:00;7.80;99.90
56861;DHT22;42744;51.094;3.490;2023-04-08T03:34:26;7.80;99.90
56861;DHT22;42744;51.094;3.490;2023-04-08T03:36:52;7.80;99.90
56861;DHT22;42744;51.094;3.490;2023-04-08T03:39:18;7.80;99.90
56861;DHT22;42744;51.094;3.490;2023-04-08T03:41:44;7.80;99.90
56861;DHT22;42744;51.094;3.490;2023-04-08T03:44:10;7.80;99.90
56861;DHT22;42744;51.094;3.490;2023-04-08T03:46:36;7.80;99.90
56861;DHT22;42744;51.094;3.490;2023-04-08T03:49:02;7.80;99.90
56861;DHT22;42744;51.094;3.490;2023-04-08T03:51:28;7.80;99.90
56861;DHT22;42744;51.094;3.490;2023-04-08T03:53:54;7.80;99.90
56861;DHT22;42744;51.094;3.490;2023-04-08T03:56:20;7.70;99.90
56861;DHT22;42744;51.094;3.490;2023-04-08T03:58:46;7.70;99.90
56861;DHT22;42744;51.094;3.490;2023-04-08T04:01:12;7.70;99.90
56861;DHT22;42744;51.094;3.490;2023-04-08T04:03:38;7.70;99.90
56861;DHT22;42744;51.094;3.490;2023-04-08T04:06:04;7.70;99.90
56861;DHT22;42744;51.094;3.490;2023-04-08T04:08:30;7.70;99.90
56861;DHT22;42744;51.094;3.490;2023-04-08T04:10:58;7.70;99.90
56861;DHT22;42744;51.094;3.490;2023-04-08T04:13:24;7.70;99.90
56861;DHT22;42744;51.094;3.490;2023-04-08T04:15:50;7.70;99.90
56861;DHT22;42744;51.094;3.490;2023-04-08T04:18:16;7.70;99.90
56861;DHT22;42744;51.094;3.490;2023-04-08T04:20:42;7.70;99.90
56861;DHT22;42744;51.094;3.490;2023-04-08T04:23:08;7.70;99.90
56861;DHT22;42744;51.094;3.490;2023-04-08T04:25:35;7.70;99.90
56861;DHT22;42744;51.094;3.490;2023-04-08T04:28:01;7.70;99.90
56861;DHT22;42744;51.094;3.490;2023-04-08T04:30:28;7.70;99.90
56861;DHT22;42744;51.094;3.490;2023-04-08T04:32:54;7.70;99.90
56861;DHT22;42744;51.094;3.490;2023-04-08T04:35:21;7.70;99.90
56861;DHT22;42744;51.094;3.490;2023-04-08T04:37:46;7.70;99.90
56861;DHT22;42744;51.094;3.490;2023-04-08T04:40:15;7.70;99.90
56861;DHT22;42744;51.094;3.490;2023-04-08T04:42:41;7.60;99.90
56861;DHT22;42744;51.094;3.490;2023-04-08T04:45:07;7.70;99.90
56861;DHT22;42744;51.094;3.490;2023-04-08T04:47:34;7.60;99.90
56861;DHT22;42744;51.094;3.490;2023-04-08T04:50:00;7.70;99.90
56861;DHT22;42744;51.094;3.490;2023-04-08T04:52:26;7.60;99.90
56861;DHT22;42744;51.094;3.490;2023-04-08T04:54:53;7.70;99.90
56861;DHT22;42744;51.094;3.490;2023-04-08T04:57:18;7.60;99.90
56861;DHT22;42744;51.094;3.490;2023-04-08T04:59:45;7.70;99.90
56861;DHT22;42744;51.094;3.490;2023-04-08T05:02:11;7.70;99.90
56861;DHT22;42744;51.094;3.490;2023-04-08T05:04:37;7.60;99.90
56861;DHT22;42744;51.094;3.490;2023-04-08T05:07:02;7.60;99.90
56861;DHT22;42744;51.094;3.490;2023-04-08T05:09:29;7.60;99.90
56861;DHT22;42744;51.094;3.490;2023-04-08T05:11:55;7.70;99.90
56861;DHT22;42744;51.094;3.490;2023-04-08T05:14:21;7.60;99.90
56861;DHT22;42744;51.094;3.490;2023-04-08T05:16:47;7.60;99.90
56861;DHT22;42744;51.094;3.490;2023-04-08T05:19:13;7.60;99.90
56861;DHT22;42744;51.094;3.490;2023-04-08T05:21:39;7.60;99.90
56861;DHT22;42744;51.094;3.490;2023-04-08T05:24:05;7.60;99.90
56861;DHT22;42744;51.094;3.490;2023-04-08T05:26:31;7.60;99.90
56861;DHT22;42744;51.094;3.490;2023-04-08T05:28:57;7.60;99.90
56861;DHT22;42744;51.094;3.490;2023-04-08T05:31:24;7.60;99.90
56861;DHT22;42744;51.094;3.490;2023-04-08T05:33:50;7.70;99.90
56861;DHT22;42744;51.094;3.490;2023-04-08T05:36:16;7.70;99.90
56861;DHT22;42744;51.094;3.490;2023-04-08T05:38:42;7.70;99.90
56861;DHT22;42744;51.094;3.490;2023-04-08T05:41:09;7.70;99.90
56861;DHT22;42744;51.094;3.490;2023-04-08T05:43:35;7.70;99.90
56861;DHT22;42744;51.094;3.490;2023-04-08T05:46:05;7.70;99.90
56861;DHT22;42744;51.094;3.490;2023-04-08T05:48:32;7.70;99.90
56861;DHT22;42744;51.094;3.490;2023-04-08T05:50:58;7.70;99.90
56861;DHT22;42744;51.094;3.490;2023-04-08T05:53:25;7.80;99.90
56861;DHT22;42744;51.094;3.490;2023-04-08T05:55:51;7.80;99.90
56861;DHT22;42744;51.094;3.490;2023-04-08T05:58:17;7.80;99.90
56861;DHT22;42744;51.094;3.490;2023-04-08T06:00:43;7.80;99.90
56861;DHT22;42744;51.094;3.490;2023-04-08T06:03:09;7.90;99.90
56861;DHT22;42744;51.094;3.490;2023-04-08T06:05:35;7.90;99.90
56861;DHT22;42744;51.094;3.490;2023-04-08T06:08:01;7.90;99.90
56861;DHT22;42744;51.094;3.490;2023-04-08T06:10:27;7.90;99.90
56861;DHT22;42744;51.094;3.490;2023-04-08T06:12:53;7.90;99.90
56861;DHT22;42744;51.094;3.490;2023-04-08T06:15:22;8.00;99.90
56861;DHT22;42744;51.094;3.490;2023-04-08T06:17:48;8.00;99.90
56861;DHT22;42744;51.094;3.490;2023-04-08T06:20:14;8.00;99.90
56861;DHT22;42744;51.094;3.490;2023-04-08T06:22:40;8.10;99.90
56861;DHT22;42744;51.094;3.490;2023-04-08T06:25:06;8.10;99.90
56861;DHT22;42744;51.094;3.490;2023-04-08T06:27:32;8.10;99.90
56861;DHT22;42744;51.094;3.490;2023-04-08T06:29:58;8.20;99.90
56861;DHT22;42744;51.094;3.490;2023-04-08T06:32:25;8.20;99.90
56861;DHT22;42744;51.094;3.490;2023-04-08T06:34:51;8.20;99.90
56861;DHT22;42744;51.094;3.490;2023-04-08T06:37:17;8.20;99.90
56861;DHT22;42744;51.094;3.490;2023-04-08T06:39:43;8.20;99.90
56861;DHT22;42744;51.094;3.490;2023-04-08T06:42:09;8.30;99.90
56861;DHT22;42744;51.094;3.490;2023-04-08T06:44:35;8.30;99.90
56861;DHT22;42744;51.094;3.490;2023-04-08T06:47:02;8.30;99.90
56861;DHT22;42744;51.094;3.490;2023-04-08T06:49:28;8.40;99.90
56861;DHT22;42744;51.094;3.490;2023-04-08T06:51:55;8.40;99.90
56861;DHT22;42744;51.094;3.490;2023-04-08T06:54:21;8.40;99.90
56861;DHT22;42744;51.094;3.490;2023-04-08T06:56:47;8.50;99.90
56861;DHT22;42744;51.094;3.490;2023-04-08T06:59:13;8.50;99.90
56861;DHT22;42744;51.094;3.490;2023-04-08T07:01:39;8.50;99.90
56861;DHT22;42744;51.094;3.490;2023-04-08T07:04:06;8.60;99.90
56861;DHT22;42744;51.094;3.490;2023-04-08T07:06:32;8.60;99.90
56861;DHT22;42744;51.094;3.490;2023-04-08T07:08:58;8.70;99.90
56861;DHT22;42744;51.094;3.490;2023-04-08T07:11:24;8.80;99.90
56861;DHT22;42744;51.094;3.490;2023-04-08T07:13:50;8.80;99.90
56861;DHT22;42744;51.094;3.490;2023-04-08T07:16:17;8.90;99.90
56861;DHT22;42744;51.094;3.490;2023-04-08T07:18:43;9.00;99.90
56861;DHT22;42744;51.094;3.490;2023-04-08T07:21:09;9.00;99.90
56861;DHT22;42744;51.094;3.490;2023-04-08T07:23:35;9.00;99.90
56861;DHT22;42744;51.094;3.490;2023-04-08T07:26:02;9.10;99.90
56861;DHT22;42744;51.094;3.490;2023-04-08T07:28:29;9.10;99.90
56861;DHT22;42744;51.094;3.490;2023-04-08T07:30:56;9.00;99.90
56861;DHT22;42744;51.094;3.490;2023-04-08T07:33:22;9.00;99.90
56861;DHT22;42744;51.094;3.490;2023-04-08T07:35:48;9.00;99.90
56861;DHT22;42744;51.094;3.490;2023-04-08T07:38:14;9.10;99.90
56861;DHT22;42744;51.094;3.490;2023-04-08T07:40:41;9.10;99.90
56861;DHT22;42744;51.094;3.490;2023-04-08T07:43:07;9.10;99.90
56861;DHT22;42744;51.094;3.490;2023-04-08T07:45:34;9.10;99.90
56861;DHT22;42744;51.094;3.490;2023-04-08T07:48:00;9.10;99.90
56861;DHT22;42744;51.094;3.490;2023-04-08T07:50:26;9.10;99.90
56861;DHT22;42744;51.094;3.490;2023-04-08T07:52:52;9.20;99.90
56861;DHT22;42744;51.094;3.490;2023-04-08T07:55:18;9.20;99.90
56861;DHT22;42744;51.094;3.490;2023-04-08T07:57:44;9.30;99.90
56861;DHT22;42744;51.094;3.490;2023-04-08T08:00:11;9.40;99.90
56861;DHT22;42744;51.094;3.490;2023-04-08T08:02:38;9.40;99.90
56861;DHT22;42744;51.094;3.490;2023-04-08T08:05:05;9.40;99.90
56861;DHT22;42744;51.094;3.490;2023-04-08T08:07:32;9.40;99.90
56861;DHT22;42744;51.094;3.490;2023-04-08T08:09:58;9.40;99.90
56861;DHT22;42744;51.094;3.490;2023-04-08T08:12:24;9.50;99.90
56861;DHT22;42744;51.094;3.490;2023-04-08T08:14:50;9.60;99.90
56861;DHT22;42744;51.094;3.490;2023-04-08T08:17:19;9.60;99.90
56861;DHT22;42744;51.094;3.490;2023-04-08T08:19:46;9.70;99.90
56861;DHT22;42744;51.094;3.490;2023-04-08T08:22:11;9.70;99.90
56861;DHT22;42744;51.094;3.490;2023-04-08T08:24:37;9.80;99.90
56861;DHT22;42744;51.094;3.490;2023-04-08T08:27:04;9.90;99.90
56861;DHT22;42744;51.094;3.490;2023-04-08T08:29:31;10.10;99.90
56861;DHT22;42744;51.094;3.490;2023-04-08T08:31:57;10.20;99.90
56861;DHT22;42744;51.094;3.490;2023-04-08T08:34:23;10.40;99.90
56861;DHT22;42744;51.094;3.490;2023-04-08T08:36:49;10.60;99.90
56861;DHT22;42744;51.094;3.490;2023-04-08T08:39:15;10.80;99.90
56861;DHT22;42744;51.094;3.490;2023-04-08T08:41:41;10.90;99.90
56861;DHT22;42744;51.094;3.490;2023-04-08T08:44:07;11.00;99.90
56861;DHT22;42744;51.094;3.490;2023-04-08T08:46:34;11.10;99.90
56861;DHT22;42744;51.094;3.490;2023-04-08T08:49:00;11.30;99.90
56861;DHT22;42744;51.094;3.490;2023-04-08T08:51:27;11.30;99.90
56861;DHT22;42744;51.094;3.490;2023-04-08T08:53:54;11.30;99.90
56861;DHT22;42744;51.094;3.490;2023-04-08T08:56:20;11.30;99.90
56861;DHT22;42744;51.094;3.490;2023-04-08T08:58:46;11.40;99.90
56861;DHT22;42744;51.094;3.490;2023-04-08T09:01:34;11.50;99.90
56861;DHT22;42744;51.094;3.490;2023-04-08T09:04:17;11.70;99.90
56861;DHT22;42744;51.094;3.490;2023-04-08T09:06:49;11.90;99.90
56861;DHT22;42744;51.094;3.490;2023-04-08T09:09:16;12.10;99.90
56861;DHT22;42744;51.094;3.490;2023-04-08T09:11:44;12.10;99.90
56861;DHT22;42744;51.094;3.490;2023-04-08T09:14:21;12.10;99.90
56861;DHT22;42744;51.094;3.490;2023-04-08T09:16:48;12.10;99.90
56861;DHT22;42744;51.094;3.490;2023-04-08T09:19:14;12.00;99.90
56861;DHT22;42744;51.094;3.490;2023-04-08T09:21:40;11.90;99.90
56861;DHT22;42744;51.094;3.490;2023-04-08T09:24:07;12.00;99.90
56861;DHT22;42744;51.094;3.490;2023-04-08T09:26:34;11.90;99.90
56861;DHT22;42744;51.094;3.490;2023-04-08T09:29:05;11.80;99.90
56861;DHT22;42744;51.094;3.490;2023-04-08T09:31:37;11.80;99.90
56861;DHT22;42744;51.094;3.490;2023-04-08T09:34:10;11.90;99.90
56861;DHT22;42744;51.094;3.490;2023-04-08T09:36:37;12.10;99.90
56861;DHT22;42744;51.094;3.490;2023-04-08T09:39:04;12.10;99.90
56861;DHT22;42744;51.094;3.490;2023-04-08T09:41:33;12.20;99.90
56861;DHT22;42744;51.094;3.490;2023-04-08T09:44:02;12.10;99.90
56861;DHT22;42744;51.094;3.490;2023-04-08T09:49:26;11.90;99.90
56861;DHT22;42744;51.094;3.490;2023-04-08T09:51:58;12.00;99.90
56861;DHT22;42744;51.094;3.490;2023-04-08T09:54:43;12.10;99.90
56861;DHT22;42744;51.094;3.490;2023-04-08T09:57:18;12.10;99.90
56861;DHT22;42744;51.094;3.490;2023-04-08T09:59:55;12.10;99.90
56861;DHT22;42744;51.094;3.490;2023-04-08T10:02:29;12.10;99.90
56861;DHT22;42744;51.094;3.490;2023-04-08T10:04:59;12.00;99.90
56861;DHT22;42744;51.094;3.490;2023-04-08T10:07:25;11.90;99.90
56861;DHT22;42744;51.094;3.490;2023-04-08T10:09:51;11.70;99.90
56861;DHT22;42744;51.094;3.490;2023-04-08T10:12:18;11.60;99.90
56861;DHT22;42744;51.094;3.490;2023-04-08T10:15:22;11.60;99.90
56861;DHT22;42744;51.094;3.490;2023-04-08T10:17:50;11.70;99.90
56861;DHT22;42744;51.094;3.490;2023-04-08T10:20:46;11.60;99.90
56861;DHT22;42744;51.094;3.490;2023-04-08T10:23:14;11.50;99.90
56861;DHT22;42744;51.094;3.490;2023-04-08T10:25:45;11.40;99.90
56861;DHT22;42744;51.094;3.490;2023-04-08T10:30:48;11.50;99.90
56861;DHT22;42744;51.094;3.490;2023-04-08T10:35:53;11.50;99.90
56861;DHT22;42744;51.094;3.490;2023-04-08T10:38:19;11.40;99.90
56861;DHT22;42744;51.094;3.490;2023-04-08T10:40:47;11.40;99.90
56861;DHT22;42744;51.094;3.490;2023-04-08T10:43:13;11.40;99.90
56861;DHT22;42744;51.094;3.490;2023-04-08T10:45:42;11.20;99.90
56861;DHT22;42744;51.094;3.490;2023-04-08T10:50:37;11.10;99.90
56861;DHT22;42744;51.094;3.490;2023-04-08T10:53:04;11.10;99.90
56861;DHT22;42744;51.094;3.490;2023-04-08T10:55:30;11.20;99.90
56861;DHT22;42744;51.094;3.490;2023-04-08T10:58:07;11.20;99.90
56861;DHT22;42744;51.094;3.490;2023-04-08T11:00:38;11.20;99.90
56861;DHT22;42744;51.094;3.490;2023-04-08T11:03:09;11.10;99.90
56861;DHT22;42744;51.094;3.490;2023-04-08T11:05:37;11.10;99.90
56861;DHT22;42744;51.094;3.490;2023-04-08T11:08:04;11.20;99.90
56861;DHT22;42744;51.094;3.490;2023-04-08T11:10:33;11.30;99.90
56861;DHT22;42744;51.094;3.490;2023-04-08T11:13:01;11.50;99.90
56861;DHT22;42744;51.094;3.490;2023-04-08T11:15:29;11.50;99.90
56861;DHT22;42744;51.094;3.490;2023-04-08T11:17:55;11.50;99.90
56861;DHT22;42744;51.094;3.490;2023-04-08T11:20:22;11.60;99.90
56861;DHT22;42744;51.094;3.490;2023-04-08T11:22:49;11.70;99.90
56861;DHT22;42744;51.094;3.490;2023-04-08T11:25:16;11.80;99.90
56861;DHT22;42744;51.094;3.490;2023-04-08T11:27:42;11.80;99.90
56861;DHT22;42744;51.094;3.490;2023-04-08T11:30:10;11.80;99.90
56861;DHT22;42744;51.094;3.490;2023-04-08T11:32:37;11.90;99.90
56861;DHT22;42744;51.094;3.490;2023-04-08T11:35:04;11.90;99.90
56861;DHT22;42744;51.094;3.490;2023-04-08T11:37:40;11.90;99.90
56861;DHT22;42744;51.094;3.490;2023-04-08T11:40:11;12.00;99.90
56861;DHT22;42744;51.094;3.490;2023-04-08T11:42:38;12.00;99.90
56861;DHT22;42744;51.094;3.490;2023-04-08T11:45:11;12.10;99.90
56861;DHT22;42744;51.094;3.490;2023-04-08T11:47:38;12.10;99.90
56861;DHT22;42744;51.094;3.490;2023-04-08T11:50:05;12.20;99.90
56861;DHT22;42744;51.094;3.490;2023-04-08T11:52:48;12.20;99.90
56861;DHT22;42744;51.094;3.490;2023-04-08T11:55:28;12.20;99.90
56861;DHT22;42744;51.094;3.490;2023-04-08T11:57:56;12.20;99.90
56861;DHT22;42744;51.094;3.490;2023-04-08T12:00:23;12.20;99.90
56861;DHT22;42744;51.094;3.490;2023-04-08T12:02:50;12.20;99.90
56861;DHT22;42744;51.094;3.490;2023-04-08T12:05:17;12.10;99.90
56861;DHT22;42744;51.094;3.490;2023-04-08T12:07:46;12.20;99.90
56861;DHT22;42744;51.094;3.490;2023-04-08T12:10:14;12.20;99.90
56861;DHT22;42744;51.094;3.490;2023-04-08T12:12:49;12.30;99.90
56861;DHT22;42744;51.094;3.490;2023-04-08T12:15:16;12.20;99.90
56861;DHT22;42744;51.094;3.490;2023-04-08T12:17:43;12.20;99.90
56861;DHT22;42744;51.094;3.490;2023-04-08T12:20:13;12.10;99.90
56861;DHT22;42744;51.094;3.490;2023-04-08T12:22:41;12.10;99.90
56861;DHT22;42744;51.094;3.490;2023-04-08T12:25:07;12.10;99.90
56861;DHT22;42744;51.094;3.490;2023-04-08T12:27:34;12.00;99.90
56861;DHT22;42744;51.094;3.490;2023-04-08T12:30:12;11.90;99.90
56861;DHT22;42744;51.094;3.490;2023-04-08T12:32:54;12.00;99.90
56861;DHT22;42744;51.094;3.490;2023-04-08T12:35:26;12.00;99.90
56861;DHT22;42744;51.094;3.490;2023-04-08T12:37:52;12.00;99.90
56861;DHT22;42744;51.094;3.490;2023-04-08T12:40:18;12.00;99.90
56861;DHT22;42744;51.094;3.490;2023-04-08T12:42:45;12.00;99.90
56861;DHT22;42744;51.094;3.490;2023-04-08T12:45:11;12.20;99.90
56861;DHT22;42744;51.094;3.490;2023-04-08T12:47:37;12.20;99.90
56861;DHT22;42744;51.094;3.490;2023-04-08T12:50:04;12.30;99.90
56861;DHT22;42744;51.094;3.490;2023-04-08T12:52:30;12.40;99.90
56861;DHT22;42744;51.094;3.490;2023-04-08T12:54:55;12.40;99.90
56861;DHT22;42744;51.094;3.490;2023-04-08T12:57:22;12.50;99.90
56861;DHT22;42744;51.094;3.490;2023-04-08T12:59:48;12.60;99.90
56861;DHT22;42744;51.094;3.490;2023-04-08T13:02:13;12.80;99.90
56861;DHT22;42744;51.094;3.490;2023-04-08T13:04:40;12.90;99.90
56861;DHT22;42744;51.094;3.490;2023-04-08T13:07:06;13.10;99.90
56861;DHT22;42744;51.094;3.490;2023-04-08T13:09:32;13.20;99.90
56861;DHT22;42744;51.094;3.490;2023-04-08T13:11:58;13.30;99.90
56861;DHT22;42744;51.094;3.490;2023-04-08T13:14:24;13.40;99.90
56861;DHT22;42744;51.094;3.490;2023-04-08T13:16:50;13.60;99.90
56861;DHT22;42744;51.094;3.490;2023-04-08T13:19:16;13.50;99.90
56861;DHT22;42744;51.094;3.490;2023-04-08T13:21:42;13.40;99.90
56861;DHT22;42744;51.094;3.490;2023-04-08T13:24:08;13.40;99.90
56861;DHT22;42744;51.094;3.490;2023-04-08T13:26:34;13.40;99.90
56861;DHT22;42744;51.094;3.490;2023-04-08T13:29:00;13.50;99.90
56861;DHT22;42744;51.094;3.490;2023-04-08T13:31:26;13.60;99.90
56861;DHT22;42744;51.094;3.490;2023-04-08T13:33:53;13.70;99.90
56861;DHT22;42744;51.094;3.490;2023-04-08T13:36:18;13.80;99.90
56861;DHT22;42744;51.094;3.490;2023-04-08T13:38:44;13.90;99.90
56861;DHT22;42744;51.094;3.490;2023-04-08T13:41:11;13.90;99.90
56861;DHT22;42744;51.094;3.490;2023-04-08T13:43:37;13.80;99.90
56861;DHT22;42744;51.094;3.490;2023-04-08T13:46:03;13.90;99.90
56861;DHT22;42744;51.094;3.490;2023-04-08T13:48:29;14.00;99.90
56861;DHT22;42744;51.094;3.490;2023-04-08T13:50:55;14.10;99.90
56861;DHT22;42744;51.094;3.490;2023-04-08T13:53:21;14.10;99.90
56861;DHT22;42744;51.094;3.490;2023-04-08T13:55:47;14.30;99.90
56861;DHT22;42744;51.094;3.490;2023-04-08T13:58:13;14.30;99.90
56861;DHT22;42744;51.094;3.490;2023-04-08T14:00:39;14.40;99.90
56861;DHT22;42744;51.094;3.490;2023-04-08T14:03:05;14.40;99.90
56861;DHT22;42744;51.094;3.490;2023-04-08T14:05:31;14.30;99.90
56861;DHT22;42744;51.094;3.490;2023-04-08T14:07:57;14.30;99.90
56861;DHT22;42744;51.094;3.490;2023-04-08T14:10:23;14.40;99.90
56861;DHT22;42744;51.094;3.490;2023-04-08T14:12:49;14.50;99.90
56861;DHT22;42744;51.094;3.490;2023-04-08T14:15:15;14.60;99.90
56861;DHT22;42744;51.094;3.490;2023-04-08T14:17:42;14.60;99.90
56861;DHT22;42744;51.094;3.490;2023-04-08T14:20:08;14.50;99.90
56861;DHT22;42744;51.094;3.490;2023-04-08T14:22:34;14.50;99.90
56861;DHT22;42744;51.094;3.490;2023-04-08T14:25:00;14.50;99.90
56861;DHT22;42744;51.094;3.490;2023-04-08T14:27:26;14.30;99.90
56861;DHT22;42744;51.094;3.490;2023-04-08T14:29:52;14.40;99.90
56861;DHT22;42744;51.094;3.490;2023-04-08T14:32:18;14.70;99.90
56861;DHT22;42744;51.094;3.490;2023-04-08T14:34:44;15.00;99.90
56861;DHT22;42744;51.094;3.490;2023-04-08T14:37:10;14.80;99.90
56861;DHT22;42744;51.094;3.490;2023-04-08T14:39:37;14.70;99.90
56861;DHT22;42744;51.094;3.490;2023-04-08T14:42:03;14.80;99.90
56861;DHT22;42744;51.094;3.490;2023-04-08T14:44:29;14.70;99.90
56861;DHT22;42744;51.094;3.490;2023-04-08T14:46:55;14.50;99.90
56861;DHT22;42744;51.094;3.490;2023-04-08T14:49:21;14.20;99.90
56861;DHT22;42744;51.094;3.490;2023-04-08T14:51:47;14.00;99.90
56861;DHT22;42744;51.094;3.490;2023-04-08T14:54:13;13.90;99.90
56861;DHT22;42744;51.094;3.490;2023-04-08T14:56:41;13.90;99.90
56861;DHT22;42744;51.094;3.490;2023-04-08T14:59:07;13.80;99.90
56861;DHT22;42744;51.094;3.490;2023-04-08T15:01:33;13.80;99.90
56861;DHT22;42744;51.094;3.490;2023-04-08T15:04:00;13.80;99.90
56861;DHT22;42744;51.094;3.490;2023-04-08T15:06:26;13.90;99.90
56861;DHT22;42744;51.094;3.490;2023-04-08T15:08:53;13.90;99.90
56861;DHT22;42744;51.094;3.490;2023-04-08T15:11:19;13.90;99.90
56861;DHT22;42744;51.094;3.490;2023-04-08T15:13:46;13.80;99.90
56861;DHT22;42744;51.094;3.490;2023-04-08T15:16:13;13.70;99.90
56861;DHT22;42744;51.094;3.490;2023-04-08T15:18:39;13.50;99.90
56861;DHT22;42744;51.094;3.490;2023-04-08T15:21:05;13.40;99.90
56861;DHT22;42744;51.094;3.490;2023-04-08T15:23:31;13.30;99.90
56861;DHT22;42744;51.094;3.490;2023-04-08T15:25:57;13.20;99.90
56861;DHT22;42744;51.094;3.490;2023-04-08T15:28:23;13.20;99.90
56861;DHT22;42744;51.094;3.490;2023-04-08T15:30:49;13.30;99.90
56861;DHT22;42744;51.094;3.490;2023-04-08T15:33:15;13.30;99.90
56861;DHT22;42744;51.094;3.490;2023-04-08T15:35:45;13.30;99.90
56861;DHT22;42744;51.094;3.490;2023-04-08T15:38:14;13.30;99.90
56861;DHT22;42744;51.094;3.490;2023-04-08T15:40:41;13.30;99.90
56861;DHT22;42744;51.094;3.490;2023-04-08T15:43:07;13.20;99.90
56861;DHT22;42744;51.094;3.490;2023-04-08T15:45:35;13.10;99.90
56861;DHT22;42744;51.094;3.490;2023-04-08T15:48:03;13.00;99.90
56861;DHT22;42744;51.094;3.490;2023-04-08T15:50:29;13.00;99.90
56861;DHT22;42744;51.094;3.490;2023-04-08T15:52:56;13.10;99.90
56861;DHT22;42744;51.094;3.490;2023-04-08T15:55:22;13.20;99.90